sensor_id;sensor_type;location;lat;lon;timestamp;pressure;altitude;pressure_sealevel;temperature;humidity
64200;BME280;50516;52.272;5.136;2023-09-07T00:00:40;101994.53;;;21.32;80.88
64200;BME280;50516;52.272;5.136;2023-09-07T00:03:06;102003.72;;;21.32;81.13
64200;BME280;50516;52.272;5.136;2023-09-07T00:05:31;101998.94;;;21.33;80.64
64200;BME280;50516;52.272;5.136;2023-09-07T00:07:57;101988.63;;;21.33;80.63
64200;BME280;50516;52.272;5.136;2023-09-07T00:10:22;101990.88;;;21.31;80.60
64200;BME280;50516;52.272;5.136;2023-09-07T00:12:48;101983.16;;;21.28;80.63
64200;BME280;50516;52.272;5.136;2023-09-07T00:15:13;101978.53;;;21.24;80.71
64200;BME280;50516;52.272;5.136;2023-09-07T00:17:38;101981.50;;;21.27;81.05
64200;BME280;50516;52.272;5.136;2023-09-07T00:20:04;101982.00;;;21.29;80.48
64200;BME280;50516;52.272;5.136;2023-09-07T00:22:36;101977.75;;;21.32;80.14
64200;BME280;50516;52.272;5.136;2023-09-07T00:25:02;101974.44;;;21.30;80.05
64200;BME280;50516;52.272;5.136;2023-09-07T00:27:29;101980.72;;;21.36;79.48
64200;BME280;50516;52.272;5.136;2023-09-07T00:29:57;101982.06;;;21.38;79.23
64200;BME280;50516;52.272;5.136;2023-09-07T00:32:23;101978.63;;;21.41;79.13
64200;BME280;50516;52.272;5.136;2023-09-07T00:34:48;101976.34;;;21.43;78.67
64200;BME280;50516;52.272;5.136;2023-09-07T00:37:13;101978.22;;;21.48;78.52
64200;BME280;50516;52.272;5.136;2023-09-07T00:39:38;101974.78;;;21.51;78.34
64200;BME280;50516;52.272;5.136;2023-09-07T00:42:04;101966.28;;;21.56;78.14
64200;BME280;50516;52.272;5.136;2023-09-07T00:44:29;101972.84;;;21.60;77.75
64200;BME280;50516;52.272;5.136;2023-09-07T00:46:56;101970.59;;;21.62;77.40
64200;BME280;50516;52.272;5.136;2023-09-07T00:49:23;101977.00;;;21.63;77.28
64200;BME280;50516;52.272;5.136;2023-09-07T00:51:48;101968.59;;;21.63;77.25
64200;BME280;50516;52.272;5.136;2023-09-07T00:54:14;101971.72;;;21.61;77.44
64200;BME280;50516;52.272;5.136;2023-09-07T00:56:40;101967.44;;;21.64;76.83
64200;BME280;50516;52.272;5.136;2023-09-07T00:59:07;101965.00;;;21.62;76.88
64200;BME280;50516;52.272;5.136;2023-09-07T01:01:33;101968.53;;;21.54;77.64
64200;BME280;50516;52.272;5.136;2023-09-07T01:03:59;101967.91;;;21.57;77.31
64200;BME280;50516;52.272;5.136;2023-09-07T01:07:01;101960.84;;;21.60;77.36
64200;BME280;50516;52.272;5.136;2023-09-07T01:09:30;101963.66;;;21.60;77.08
64200;BME280;50516;52.272;5.136;2023-09-07T01:11:57;101962.00;;;21.59;76.73
64200;BME280;50516;52.272;5.136;2023-09-07T01:14:22;101961.19;;;21.58;77.00
64200;BME280;50516;52.272;5.136;2023-09-07T01:16:49;101962.63;;;21.56;76.95
64200;BME280;50516;52.272;5.136;2023-09-07T01:19:14;101965.75;;;21.54;77.01
64200;BME280;50516;52.272;5.136;2023-09-07T01:21:40;101962.94;;;21.54;77.07
64200;BME280;50516;52.272;5.136;2023-09-07T01:24:09;101972.06;;;21.46;77.43
64200;BME280;50516;52.272;5.136;2023-09-07T01:26:36;101974.69;;;21.42;77.59
64200;BME280;50516;52.272;5.136;2023-09-07T01:29:05;101970.44;;;21.45;77.31
64200;BME280;50516;52.272;5.136;2023-09-07T01:31:34;101965.50;;;21.42;77.57
64200;BME280;50516;52.272;5.136;2023-09-07T01:34:00;101960.41;;;21.44;77.32
64200;BME280;50516;52.272;5.136;2023-09-07T01:36:25;101959.06;;;21.41;77.25
64200;BME280;50516;52.272;5.136;2023-09-07T01:38:50;101962.19;;;21.40;77.45
64200;BME280;50516;52.272;5.136;2023-09-07T01:41:15;101960.34;;;21.35;77.60
64200;BME280;50516;52.272;5.136;2023-09-07T01:43:42;101956.22;;;21.32;77.96
64200;BME280;50516;52.272;5.136;2023-09-07T01:46:07;101953.75;;;21.31;78.00
64200;BME280;50516;52.272;5.136;2023-09-07T01:48:32;101950.28;;;21.25;78.03
64200;BME280;50516;52.272;5.136;2023-09-07T01:50:58;101959.47;;;21.26;77.87
64200;BME280;50516;52.272;5.136;2023-09-07T01:53:23;101955.66;;;21.22;78.24
64200;BME280;50516;52.272;5.136;2023-09-07T01:55:48;101964.34;;;21.20;77.94
64200;BME280;50516;52.272;5.136;2023-09-07T01:58:14;101957.13;;;21.19;78.49
64200;BME280;50516;52.272;5.136;2023-09-07T02:00:39;101957.13;;;21.19;78.04
64200;BME280;50516;52.272;5.136;2023-09-07T02:03:05;101951.34;;;21.15;78.26
64200;BME280;50516;52.272;5.136;2023-09-07T02:05:31;101956.09;;;21.15;78.56
64200;BME280;50516;52.272;5.136;2023-09-07T02:07:58;101953.63;;;21.13;78.45
64200;BME280;50516;52.272;5.136;2023-09-07T02:10:23;101958.53;;;21.08;78.38
64200;BME280;50516;52.272;5.136;2023-09-07T02:12:49;101955.88;;;21.03;78.63
64200;BME280;50516;52.272;5.136;2023-09-07T02:15:14;101957.50;;;21.04;78.53
64200;BME280;50516;52.272;5.136;2023-09-07T02:17:39;101952.22;;;21.02;78.75
64200;BME280;50516;52.272;5.136;2023-09-07T02:20:05;101962.91;;;21.00;78.75
64200;BME280;50516;52.272;5.136;2023-09-07T02:22:35;101952.66;;;20.95;78.72
64200;BME280;50516;52.272;5.136;2023-09-07T02:25:01;101955.78;;;20.94;79.13
64200;BME280;50516;52.272;5.136;2023-09-07T02:27:26;101961.66;;;20.92;78.93
64200;BME280;50516;52.272;5.136;2023-09-07T02:29:51;101960.34;;;20.90;79.14
64200;BME280;50516;52.272;5.136;2023-09-07T02:32:16;101960.66;;;20.88;79.30
64200;BME280;50516;52.272;5.136;2023-09-07T02:34:42;101958.69;;;20.89;79.54
64200;BME280;50516;52.272;5.136;2023-09-07T02:37:08;101955.41;;;20.87;79.65
64200;BME280;50516;52.272;5.136;2023-09-07T02:39:33;101960.75;;;20.83;79.37
64200;BME280;50516;52.272;5.136;2023-09-07T02:41:59;101961.63;;;20.84;79.38
64200;BME280;50516;52.272;5.136;2023-09-07T02:44:24;101954.56;;;20.86;79.17
64200;BME280;50516;52.272;5.136;2023-09-07T02:46:49;101960.25;;;20.81;79.62
64200;BME280;50516;52.272;5.136;2023-09-07T02:49:14;101958.09;;;20.78;79.32
64200;BME280;50516;52.272;5.136;2023-09-07T02:51:40;101956.56;;;20.72;79.54
64200;BME280;50516;52.272;5.136;2023-09-07T02:54:05;101959.47;;;20.67;79.74
64200;BME280;50516;52.272;5.136;2023-09-07T02:56:31;101967.84;;;20.67;79.81
64200;BME280;50516;52.272;5.136;2023-09-07T02:58:56;101958.75;;;20.61;80.11
64200;BME280;50516;52.272;5.136;2023-09-07T03:01:22;101964.66;;;20.59;80.05
64200;BME280;50516;52.272;5.136;2023-09-07T03:03:47;101964.97;;;20.58;80.19
64200;BME280;50516;52.272;5.136;2023-09-07T03:06:13;101959.50;;;20.53;80.38
64200;BME280;50516;52.272;5.136;2023-09-07T03:08:40;101960.00;;;20.55;80.30
64200;BME280;50516;52.272;5.136;2023-09-07T03:11:06;101955.56;;;20.54;80.50
64200;BME280;50516;52.272;5.136;2023-09-07T03:13:32;101959.19;;;20.54;80.24
64200;BME280;50516;52.272;5.136;2023-09-07T03:15:58;101964.75;;;20.54;80.45
64200;BME280;50516;52.272;5.136;2023-09-07T03:18:23;101960.31;;;20.53;80.27
64200;BME280;50516;52.272;5.136;2023-09-07T03:20:54;101963.09;;;20.53;80.27
64200;BME280;50516;52.272;5.136;2023-09-07T03:23:20;101960.44;;;20.48;80.61
64200;BME280;50516;52.272;5.136;2023-09-07T03:25:46;101957.63;;;20.48;80.35
64200;BME280;50516;52.272;5.136;2023-09-07T03:28:11;101955.97;;;20.47;80.54
64200;BME280;50516;52.272;5.136;2023-09-07T03:30:36;101959.38;;;20.44;80.48
64200;BME280;50516;52.272;5.136;2023-09-07T03:33:01;101960.00;;;20.41;80.35
64200;BME280;50516;52.272;5.136;2023-09-07T03:35:28;101954.75;;;20.39;80.70
64200;BME280;50516;52.272;5.136;2023-09-07T03:37:53;101958.69;;;20.38;80.46
64200;BME280;50516;52.272;5.136;2023-09-07T03:40:19;101954.25;;;20.37;80.67
64200;BME280;50516;52.272;5.136;2023-09-07T03:42:44;101955.41;;;20.36;80.57
64200;BME280;50516;52.272;5.136;2023-09-07T03:45:11;101959.81;;;20.37;80.80
64200;BME280;50516;52.272;5.136;2023-09-07T03:47:37;101948.47;;;20.34;80.67
64200;BME280;50516;52.272;5.136;2023-09-07T03:50:02;101950.75;;;20.32;80.86
64200;BME280;50516;52.272;5.136;2023-09-07T03:52:31;101946.91;;;20.28;81.06
64200;BME280;50516;52.272;5.136;2023-09-07T03:54:57;101948.69;;;20.23;81.16
64200;BME280;50516;52.272;5.136;2023-09-07T03:57:23;101944.75;;;20.24;81.18
64200;BME280;50516;52.272;5.136;2023-09-07T03:59:49;101949.50;;;20.24;81.08
64200;BME280;50516;52.272;5.136;2023-09-07T04:02:14;101944.25;;;20.22;81.21
64200;BME280;50516;52.272;5.136;2023-09-07T04:04:40;101945.38;;;20.21;81.19
64200;BME280;50516;52.272;5.136;2023-09-07T04:07:05;101952.59;;;20.22;81.23
64200;BME280;50516;52.272;5.136;2023-09-07T04:09:31;101952.59;;;20.22;80.96
64200;BME280;50516;52.272;5.136;2023-09-07T04:11:56;101952.81;;;20.26;81.34
64200;BME280;50516;52.272;5.136;2023-09-07T04:14:21;101954.78;;;20.25;81.13
64200;BME280;50516;52.272;5.136;2023-09-07T04:16:47;101956.22;;;20.23;81.09
64200;BME280;50516;52.272;5.136;2023-09-07T04:19:12;101960.66;;;20.24;80.85
64200;BME280;50516;52.272;5.136;2023-09-07T04:21:37;101952.59;;;20.22;81.41
64200;BME280;50516;52.272;5.136;2023-09-07T04:24:04;101959.63;;;20.20;81.27
64200;BME280;50516;52.272;5.136;2023-09-07T04:26:29;101953.66;;;20.13;81.64
64200;BME280;50516;52.272;5.136;2023-09-07T04:28:54;101955.31;;;20.14;81.56
64200;BME280;50516;52.272;5.136;2023-09-07T04:31:20;101949.50;;;20.10;81.70
64200;BME280;50516;52.272;5.136;2023-09-07T04:33:46;101953.97;;;20.11;81.58
64200;BME280;50516;52.272;5.136;2023-09-07T04:36:14;101955.09;;;20.10;81.79
64200;BME280;50516;52.272;5.136;2023-09-07T04:38:40;101955.09;;;20.10;81.80
64200;BME280;50516;52.272;5.136;2023-09-07T04:41:07;101959.03;;;20.09;81.76
64200;BME280;50516;52.272;5.136;2023-09-07T04:43:33;101953.75;;;20.08;81.69
64200;BME280;50516;52.272;5.136;2023-09-07T04:45:58;101963.75;;;20.09;81.38
64200;BME280;50516;52.272;5.136;2023-09-07T04:48:23;101964.59;;;20.09;81.50
64200;BME280;50516;52.272;5.136;2023-09-07T04:50:56;101964.38;;;20.05;81.54
64200;BME280;50516;52.272;5.136;2023-09-07T04:53:22;101962.53;;;20.01;81.79
64200;BME280;50516;52.272;5.136;2023-09-07T04:55:47;101961.81;;;19.95;82.12
64200;BME280;50516;52.272;5.136;2023-09-07T04:58:12;101971.22;;;19.99;81.88
64200;BME280;50516;52.272;5.136;2023-09-07T05:00:37;101963.97;;;19.98;81.89
64200;BME280;50516;52.272;5.136;2023-09-07T05:03:03;101964.78;;;19.99;82.04
64200;BME280;50516;52.272;5.136;2023-09-07T05:05:28;101966.03;;;19.93;82.06
64200;BME280;50516;52.272;5.136;2023-09-07T05:07:53;101971.53;;;19.98;82.08
64200;BME280;50516;52.272;5.136;2023-09-07T05:10:19;101971.81;;;19.96;81.91
64200;BME280;50516;52.272;5.136;2023-09-07T05:12:44;101977.41;;;19.96;82.17
64200;BME280;50516;52.272;5.136;2023-09-07T05:15:09;101973.03;;;20.04;81.84
64200;BME280;50516;52.272;5.136;2023-09-07T05:17:35;101972.53;;;20.02;81.65
64200;BME280;50516;52.272;5.136;2023-09-07T05:20:00;101980.28;;;20.05;81.68
64200;BME280;50516;52.272;5.136;2023-09-07T05:22:26;101985.25;;;20.08;81.29
64200;BME280;50516;52.272;5.136;2023-09-07T05:24:51;101976.47;;;20.15;81.25
64200;BME280;50516;52.272;5.136;2023-09-07T05:27:16;101984.84;;;20.15;81.01
64200;BME280;50516;52.272;5.136;2023-09-07T05:29:42;101984.22;;;20.18;81.21
64200;BME280;50516;52.272;5.136;2023-09-07T05:32:09;101985.47;;;20.25;80.47
64200;BME280;50516;52.272;5.136;2023-09-07T05:34:35;101987.31;;;20.30;80.21
64200;BME280;50516;52.272;5.136;2023-09-07T05:37:00;101986.28;;;20.40;79.98
64200;BME280;50516;52.272;5.136;2023-09-07T05:39:25;101992.97;;;20.53;79.38
64200;BME280;50516;52.272;5.136;2023-09-07T05:41:50;101989.34;;;20.52;79.35
64200;BME280;50516;52.272;5.136;2023-09-07T05:44:16;101994.72;;;20.63;78.73
64200;BME280;50516;52.272;5.136;2023-09-07T05:46:41;101987.78;;;20.74;78.45
64200;BME280;50516;52.272;5.136;2023-09-07T05:49:06;101997.72;;;20.80;78.03
64200;BME280;50516;52.272;5.136;2023-09-07T05:51:31;101994.91;;;20.80;78.37
64200;BME280;50516;52.272;5.136;2023-09-07T05:53:57;101999.94;;;20.92;77.95
64200;BME280;50516;52.272;5.136;2023-09-07T05:56:23;102000.41;;;21.08;77.37
64200;BME280;50516;52.272;5.136;2023-09-07T05:58:48;101999.03;;;21.19;76.67
64200;BME280;50516;52.272;5.136;2023-09-07T06:01:13;101993.31;;;21.24;76.54
64200;BME280;50516;52.272;5.136;2023-09-07T06:03:39;101997.22;;;21.23;76.31
64200;BME280;50516;52.272;5.136;2023-09-07T06:06:04;102003.91;;;21.36;75.85
64200;BME280;50516;52.272;5.136;2023-09-07T06:08:30;101999.50;;;21.44;75.61
64200;BME280;50516;52.272;5.136;2023-09-07T06:10:55;102009.94;;;21.52;75.07
64200;BME280;50516;52.272;5.136;2023-09-07T06:13:20;102001.63;;;21.61;75.08
64200;BME280;50516;52.272;5.136;2023-09-07T06:15:46;101997.88;;;21.65;74.90
64200;BME280;50516;52.272;5.136;2023-09-07T06:18:11;102015.03;;;21.73;74.21
64200;BME280;50516;52.272;5.136;2023-09-07T06:20:36;102015.84;;;21.73;73.77
64200;BME280;50516;52.272;5.136;2023-09-07T06:23:02;102016.69;;;21.74;74.29
64200;BME280;50516;52.272;5.136;2023-09-07T06:25:27;102016.69;;;21.74;73.66
64200;BME280;50516;52.272;5.136;2023-09-07T06:27:53;102019.53;;;21.91;72.92
64200;BME280;50516;52.272;5.136;2023-09-07T06:30:18;102030.16;;;22.03;72.40
64200;BME280;50516;52.272;5.136;2023-09-07T06:32:44;102027.56;;;22.15;72.28
64200;BME280;50516;52.272;5.136;2023-09-07T06:35:10;102028.09;;;22.26;71.98
64200;BME280;50516;52.272;5.136;2023-09-07T06:37:35;102023.53;;;22.30;71.68
64200;BME280;50516;52.272;5.136;2023-09-07T06:40:02;102029.75;;;22.27;71.04
64200;BME280;50516;52.272;5.136;2023-09-07T06:42:29;102025.53;;;22.38;71.04
64200;BME280;50516;52.272;5.136;2023-09-07T06:44:56;102031.00;;;22.43;70.40
64200;BME280;50516;52.272;5.136;2023-09-07T06:47:21;102030.19;;;22.52;70.49
64200;BME280;50516;52.272;5.136;2023-09-07T06:49:46;102028.88;;;22.58;70.31
64200;BME280;50516;52.272;5.136;2023-09-07T06:52:12;102033.31;;;22.59;70.60
64200;BME280;50516;52.272;5.136;2023-09-07T06:54:37;102028.41;;;22.65;70.20
64200;BME280;50516;52.272;5.136;2023-09-07T06:57:08;102029.75;;;22.76;69.99
64200;BME280;50516;52.272;5.136;2023-09-07T06:59:34;102033.69;;;22.75;69.04
64200;BME280;50516;52.272;5.136;2023-09-07T07:01:59;102025.44;;;22.78;69.35
64200;BME280;50516;52.272;5.136;2023-09-07T07:04:25;102033.72;;;22.84;69.48
64200;BME280;50516;52.272;5.136;2023-09-07T07:06:51;102028.78;;;22.98;68.85
64200;BME280;50516;52.272;5.136;2023-09-07T07:09:16;102034.38;;;23.07;68.37
64200;BME280;50516;52.272;5.136;2023-09-07T07:11:42;102031.78;;;23.10;68.50
64200;BME280;50516;52.272;5.136;2023-09-07T07:14:08;102037.19;;;23.15;68.08
64200;BME280;50516;52.272;5.136;2023-09-07T07:16:34;102038.06;;;23.16;67.51
64200;BME280;50516;52.272;5.136;2023-09-07T07:18:59;102032.44;;;23.25;67.71
64200;BME280;50516;52.272;5.136;2023-09-07T07:21:24;102036.72;;;23.31;67.44
64200;BME280;50516;52.272;5.136;2023-09-07T07:23:50;102019.25;;;23.34;66.59
64200;BME280;50516;52.272;5.136;2023-09-07T07:26:15;102027.00;;;23.37;66.35
64200;BME280;50516;52.272;5.136;2023-09-07T07:28:40;102035.22;;;23.42;65.91
64200;BME280;50516;52.272;5.136;2023-09-07T07:31:09;102039.00;;;23.46;66.18
64200;BME280;50516;52.272;5.136;2023-09-07T07:33:35;102036.19;;;23.46;65.89
64200;BME280;50516;52.272;5.136;2023-09-07T07:36:00;102047.22;;;23.60;65.40
64200;BME280;50516;52.272;5.136;2023-09-07T07:38:26;102041.25;;;23.70;65.77
64200;BME280;50516;52.272;5.136;2023-09-07T07:40:51;102039.94;;;23.77;65.85
64200;BME280;50516;52.272;5.136;2023-09-07T07:43:18;102040.59;;;23.82;65.02
64200;BME280;50516;52.272;5.136;2023-09-07T07:45:43;102036.63;;;23.92;65.25
64200;BME280;50516;52.272;5.136;2023-09-07T07:48:12;102035.78;;;24.00;64.75
64200;BME280;50516;52.272;5.136;2023-09-07T07:50:38;102023.75;;;24.00;63.90
64200;BME280;50516;52.272;5.136;2023-09-07T07:53:06;102022.09;;;23.99;64.37
64200;BME280;50516;52.272;5.136;2023-09-07T07:55:38;102027.84;;;24.02;63.44
64200;BME280;50516;52.272;5.136;2023-09-07T07:58:08;102014.13;;;24.10;64.25
64200;BME280;50516;52.272;5.136;2023-09-07T08:00:37;102017.41;;;24.12;62.79
64200;BME280;50516;52.272;5.136;2023-09-07T08:03:03;102023.66;;;24.17;63.65
64200;BME280;50516;52.272;5.136;2023-09-07T08:05:31;102026.47;;;24.17;62.71
64200;BME280;50516;52.272;5.136;2023-09-07T08:07:56;102021.69;;;24.18;62.49
64200;BME280;50516;52.272;5.136;2023-09-07T08:10:21;102025.09;;;24.23;62.60
64200;BME280;50516;52.272;5.136;2023-09-07T08:12:47;102014.19;;;24.31;62.21
64200;BME280;50516;52.272;5.136;2023-09-07T08:15:12;102012.69;;;24.33;62.28
64200;BME280;50516;52.272;5.136;2023-09-07T08:17:39;102007.38;;;24.40;61.73
64200;BME280;50516;52.272;5.136;2023-09-07T08:20:05;102010.78;;;24.46;62.29
64200;BME280;50516;52.272;5.136;2023-09-07T08:22:33;102012.59;;;24.51;61.39
64200;BME280;50516;52.272;5.136;2023-09-07T08:25:00;102002.72;;;24.45;61.53
64200;BME280;50516;52.272;5.136;2023-09-07T08:27:25;101997.41;;;24.52;60.75
64200;BME280;50516;52.272;5.136;2023-09-07T08:29:51;101997.34;;;24.60;60.77
64200;BME280;50516;52.272;5.136;2023-09-07T08:32:17;101994.97;;;24.71;61.16
64200;BME280;50516;52.272;5.136;2023-09-07T08:34:43;102001.06;;;24.73;60.89
64200;BME280;50516;52.272;5.136;2023-09-07T08:37:08;101995.78;;;24.72;60.30
64200;BME280;50516;52.272;5.136;2023-09-07T08:39:36;101994.78;;;24.76;60.61
64200;BME280;50516;52.272;5.136;2023-09-07T08:42:04;101990.31;;;24.75;60.94
64200;BME280;50516;52.272;5.136;2023-09-07T08:44:32;101996.00;;;24.88;60.88
64200;BME280;50516;52.272;5.136;2023-09-07T08:46:59;101986.56;;;24.92;60.41
64200;BME280;50516;52.272;5.136;2023-09-07T08:49:26;101988.00;;;24.99;61.08
64200;BME280;50516;52.272;5.136;2023-09-07T08:51:53;101990.59;;;25.04;60.69
64200;BME280;50516;52.272;5.136;2023-09-07T08:54:20;101985.56;;;25.09;60.43
64200;BME280;50516;52.272;5.136;2023-09-07T08:56:45;101983.72;;;25.13;60.24
64200;BME280;50516;52.272;5.136;2023-09-07T08:59:11;101991.59;;;25.20;60.58
64200;BME280;50516;52.272;5.136;2023-09-07T09:01:37;101987.09;;;25.28;60.59
64200;BME280;50516;52.272;5.136;2023-09-07T09:04:03;101975.16;;;25.31;59.84
64200;BME280;50516;52.272;5.136;2023-09-07T09:06:28;101974.13;;;25.36;59.75
64200;BME280;50516;52.272;5.136;2023-09-07T09:08:56;101979.75;;;25.36;60.21
64200;BME280;50516;52.272;5.136;2023-09-07T09:11:23;101976.03;;;25.44;59.62
64200;BME280;50516;52.272;5.136;2023-09-07T09:13:50;101977.91;;;25.52;59.76
64200;BME280;50516;52.272;5.136;2023-09-07T09:16:15;101965.72;;;25.48;58.48
64200;BME280;50516;52.272;5.136;2023-09-07T09:18:55;101980.72;;;25.52;58.48
64200;BME280;50516;52.272;5.136;2023-09-07T09:21:22;101967.13;;;25.54;57.92
64200;BME280;50516;52.272;5.136;2023-09-07T09:23:49;101962.47;;;25.58;58.22
64200;BME280;50516;52.272;5.136;2023-09-07T09:26:16;101953.56;;;25.68;58.51
64200;BME280;50516;52.272;5.136;2023-09-07T09:28:42;101960.25;;;25.88;58.41
64200;BME280;50516;52.272;5.136;2023-09-07T09:31:07;101954.44;;;25.94;58.20
64200;BME280;50516;52.272;5.136;2023-09-07T09:33:37;101949.84;;;25.89;57.77
64200;BME280;50516;52.272;5.136;2023-09-07T09:36:03;101963.06;;;25.88;57.80
64200;BME280;50516;52.272;5.136;2023-09-07T09:38:29;101956.06;;;25.95;57.34
64200;BME280;50516;52.272;5.136;2023-09-07T09:40:57;101949.16;;;26.04;57.58
64200;BME280;50516;52.272;5.136;2023-09-07T09:43:23;101954.19;;;26.11;57.60
64200;BME280;50516;52.272;5.136;2023-09-07T09:45:50;101955.25;;;26.19;57.22
64200;BME280;50516;52.272;5.136;2023-09-07T09:48:19;101957.38;;;26.22;57.52
64200;BME280;50516;52.272;5.136;2023-09-07T09:50:49;101955.00;;;26.24;56.95
64200;BME280;50516;52.272;5.136;2023-09-07T09:53:19;101954.09;;;26.32;57.74
64200;BME280;50516;52.272;5.136;2023-09-07T09:55:49;101956.66;;;26.37;56.91
64200;BME280;50516;52.272;5.136;2023-09-07T09:58:16;101956.75;;;26.41;56.28
64200;BME280;50516;52.272;5.136;2023-09-07T10:00:47;101954.50;;;26.47;57.59
64200;BME280;50516;52.272;5.136;2023-09-07T10:03:21;101956.25;;;26.51;56.11
64200;BME280;50516;52.272;5.136;2023-09-07T10:05:49;101950.28;;;26.53;56.29
64200;BME280;50516;52.272;5.136;2023-09-07T10:08:17;101953.44;;;26.51;56.61
64200;BME280;50516;52.272;5.136;2023-09-07T10:10:45;101952.38;;;26.56;55.54
64200;BME280;50516;52.272;5.136;2023-09-07T10:13:13;101953.44;;;26.64;54.36
64200;BME280;50516;52.272;5.136;2023-09-07T10:15:39;101942.53;;;26.74;54.10
64200;BME280;50516;52.272;5.136;2023-09-07T10:20:56;101956.25;;;26.76;52.81
64200;BME280;50516;52.272;5.136;2023-09-07T10:23:34;101948.81;;;26.84;53.60
64200;BME280;50516;52.272;5.136;2023-09-07T10:25:59;101950.91;;;26.87;52.21
64200;BME280;50516;52.272;5.136;2023-09-07T10:28:25;101947.28;;;26.86;52.58
64200;BME280;50516;52.272;5.136;2023-09-07T10:31:06;101944.56;;;26.90;52.46
64200;BME280;50516;52.272;5.136;2023-09-07T10:33:33;101943.75;;;26.89;52.72
64200;BME280;50516;52.272;5.136;2023-09-07T10:36:00;101937.50;;;26.96;52.76
64200;BME280;50516;52.272;5.136;2023-09-07T10:38:26;101940.06;;;27.01;52.79
64200;BME280;50516;52.272;5.136;2023-09-07T10:40:56;101934.16;;;27.06;52.19
64200;BME280;50516;52.272;5.136;2023-09-07T10:43:25;101940.50;;;27.03;51.41
64200;BME280;50516;52.272;5.136;2023-09-07T10:45:51;101940.28;;;27.08;51.48
64200;BME280;50516;52.272;5.136;2023-09-07T10:48:16;101940.47;;;27.15;51.22
64200;BME280;50516;52.272;5.136;2023-09-07T10:50:46;101936.66;;;27.24;50.69
64200;BME280;50516;52.272;5.136;2023-09-07T10:53:13;101935.03;;;27.23;50.98
64200;BME280;50516;52.272;5.136;2023-09-07T10:55:40;101940.91;;;27.30;50.74
64200;BME280;50516;52.272;5.136;2023-09-07T10:58:06;101943.34;;;27.31;50.49
64200;BME280;50516;52.272;5.136;2023-09-07T11:00:31;101933.53;;;27.41;50.14
64200;BME280;50516;52.272;5.136;2023-09-07T11:02:56;101933.09;;;27.39;49.70
64200;BME280;50516;52.272;5.136;2023-09-07T11:05:22;101929.72;;;27.49;48.50
64200;BME280;50516;52.272;5.136;2023-09-07T11:07:47;101923.63;;;27.47;48.92
64200;BME280;50516;52.272;5.136;2023-09-07T11:10:13;101926.28;;;27.56;48.27
64200;BME280;50516;52.272;5.136;2023-09-07T11:12:39;101921.25;;;27.49;49.17
64200;BME280;50516;52.272;5.136;2023-09-07T11:15:08;101922.63;;;27.56;49.53
64200;BME280;50516;52.272;5.136;2023-09-07T11:17:37;101921.63;;;27.64;48.21
64200;BME280;50516;52.272;5.136;2023-09-07T11:20:03;101923.81;;;27.55;48.42
64200;BME280;50516;52.272;5.136;2023-09-07T11:22:31;101908.69;;;27.63;48.75
64200;BME280;50516;52.272;5.136;2023-09-07T11:24:57;101914.47;;;27.66;48.63
64200;BME280;50516;52.272;5.136;2023-09-07T11:27:29;101910.44;;;27.67;49.26
64200;BME280;50516;52.272;5.136;2023-09-07T11:29:55;101909.97;;;27.81;49.19
64200;BME280;50516;52.272;5.136;2023-09-07T11:32:21;101903.91;;;27.79;49.66
64200;BME280;50516;52.272;5.136;2023-09-07T11:34:50;101907.53;;;27.80;49.07
64200;BME280;50516;52.272;5.136;2023-09-07T11:37:18;101896.31;;;27.83;49.73
64200;BME280;50516;52.272;5.136;2023-09-07T11:39:44;101908.78;;;27.82;48.75
64200;BME280;50516;52.272;5.136;2023-09-07T11:42:09;101895.88;;;27.81;48.94
64200;BME280;50516;52.272;5.136;2023-09-07T11:44:34;101909.91;;;27.78;49.07
64200;BME280;50516;52.272;5.136;2023-09-07T11:47:00;101899.44;;;27.78;49.78
64200;BME280;50516;52.272;5.136;2023-09-07T11:49:26;101905.06;;;27.78;49.04
64200;BME280;50516;52.272;5.136;2023-09-07T11:51:51;101892.97;;;27.78;48.83
64200;BME280;50516;52.272;5.136;2023-09-07T11:54:16;101890.31;;;27.85;49.45
64200;BME280;50516;52.272;5.136;2023-09-07T11:56:42;101891.41;;;27.80;49.32
64200;BME280;50516;52.272;5.136;2023-09-07T11:59:10;101888.41;;;27.89;49.43
64200;BME280;50516;52.272;5.136;2023-09-07T12:01:35;101897.44;;;27.95;49.17
64200;BME280;50516;52.272;5.136;2023-09-07T12:04:01;101897.31;;;27.91;48.26
64200;BME280;50516;52.272;5.136;2023-09-07T12:06:26;101899.22;;;27.87;48.93
64200;BME280;50516;52.272;5.136;2023-09-07T12:08:59;101885.41;;;27.82;48.57
64200;BME280;50516;52.272;5.136;2023-09-07T12:11:25;101887.50;;;27.85;48.82
64200;BME280;50516;52.272;5.136;2023-09-07T12:13:50;101883.13;;;28.03;47.91
64200;BME280;50516;52.272;5.136;2023-09-07T12:16:16;101883.41;;;27.98;48.82
64200;BME280;50516;52.272;5.136;2023-09-07T12:18:41;101886.75;;;28.04;47.72
64200;BME280;50516;52.272;5.136;2023-09-07T12:21:06;101879.03;;;28.01;47.65
64200;BME280;50516;52.272;5.136;2023-09-07T12:23:33;101879.75;;;27.98;47.77
64200;BME280;50516;52.272;5.136;2023-09-07T12:25:58;101871.72;;;28.00;48.42
64200;BME280;50516;52.272;5.136;2023-09-07T12:28:23;101873.81;;;28.03;47.87
64200;BME280;50516;52.272;5.136;2023-09-07T12:30:49;101878.22;;;28.00;48.38
64200;BME280;50516;52.272;5.136;2023-09-07T12:33:14;101868.47;;;27.98;49.09
64200;BME280;50516;52.272;5.136;2023-09-07T12:35:39;101872.66;;;28.04;49.42
64200;BME280;50516;52.272;5.136;2023-09-07T12:38:04;101868.88;;;28.16;47.16
64200;BME280;50516;52.272;5.136;2023-09-07T12:40:30;101874.44;;;28.12;48.07
64200;BME280;50516;52.272;5.136;2023-09-07T12:42:55;101865.25;;;28.15;47.65
64200;BME280;50516;52.272;5.136;2023-09-07T12:45:20;101863.78;;;28.21;47.80
64200;BME280;50516;52.272;5.136;2023-09-07T12:47:46;101864.94;;;28.20;47.48